createdAt,value
2019-03-01T00:02:46.856Z,72.0
2019-03-01T00:07:47.098Z,72.1
2019-03-01T00:12:28.282Z,72.2
2019-03-01T00:17:28.903Z,72.3
2019-03-01T00:22:29.854Z,72.3
2019-03-01T00:27:28.203Z,72.3
2019-03-01T00:32:27.893Z,72.4
2019-03-01T00:37:28.145Z,72.4
2019-03-01T00:42:28.457Z,72.4
2019-03-01T00:47:27.862Z,72.5
2019-03-01T00:52:27.707Z,72.8
2019-03-01T00:57:27.302Z,72.8
2019-03-01T01:02:27.761Z,72.8
2019-03-01T01:07:28.548Z,72.8
2019-03-01T01:12:28.756Z,73.0
2019-03-01T01:17:28.616Z,72.9
2019-03-01T01:22:27.764Z,73.0
2019-03-01T01:27:28.071Z,73.1
2019-03-01T01:32:27.822Z,73.1
2019-03-01T01:37:27.784Z,73.2
2019-03-01T01:42:27.645Z,73.4
2019-03-01T01:47:28.185Z,73.4
2019-03-01T01:52:28.213Z,73.4
2019-03-01T01:57:28.112Z,73.4
2019-03-01T02:02:28.326Z,73.1
2019-03-01T02:07:27.806Z,73.2
2019-03-01T02:12:27.658Z,73.2
2019-03-01T02:17:28.027Z,73.2
2019-03-01T02:22:28.924Z,73.2
2019-03-01T02:27:27.566Z,73.1
2019-03-01T02:32:28.113Z,73.1
2019-03-01T02:37:28.842Z,73.1
2019-03-01T02:42:28.060Z,73.0
2019-03-01T02:47:27.685Z,73.1
2019-03-01T02:52:28.566Z,72.8
2019-03-01T02:57:27.763Z,73.0
2019-03-01T03:02:28.471Z,73.0
2019-03-01T03:07:29.881Z,73.0
2019-03-01T03:12:27.735Z,73.2
2019-03-01T03:17:28.060Z,73.2
2019-03-01T03:22:28.049Z,73.0
2019-03-01T03:27:28.126Z,73.1
2019-03-01T03:32:27.823Z,73.2
2019-03-01T03:37:28.128Z,73.2
2019-03-01T03:42:28.636Z,73.2
2019-03-01T03:47:29.324Z,73.2
2019-03-01T03:52:27.939Z,73.2
2019-03-01T03:57:27.830Z,73.6
2019-03-01T04:02:28.145Z,73.4
2019-03-01T04:07:28.210Z,73.5
2019-03-01T04:12:28.008Z,73.4
2019-03-01T04:17:29.015Z,73.5
2019-03-01T04:22:28.745Z,73.6
2019-03-01T04:27:27.828Z,73.6
2019-03-01T04:32:28.516Z,73.8
2019-03-01T04:37:27.864Z,73.5
2019-03-01T04:42:28.341Z,73.5
2019-03-01T04:47:29.042Z,73.5
2019-03-01T04:52:28.592Z,73.5
2019-03-01T04:57:28.419Z,73.4
2019-03-01T05:02:28.025Z,73.3
2019-03-01T05:07:28.202Z,73.4
2019-03-01T05:12:28.310Z,73.4
2019-03-01T05:17:27.909Z,73.5
2019-03-01T05:22:28.366Z,73.4
2019-03-01T05:27:28.612Z,73.4
2019-03-01T05:32:28.318Z,73.3
2019-03-01T05:37:28.646Z,73.4
2019-03-01T05:42:28.576Z,73.5
2019-03-01T05:47:28.096Z,73.6
2019-03-01T05:52:28.432Z,73.7
2019-03-01T05:57:28.310Z,73.9
2019-03-01T06:02:28.103Z,73.9
2019-03-01T06:07:28.293Z,73.8
2019-03-01T06:12:29.022Z,73.8
2019-03-01T06:17:29.068Z,74.0
2019-03-01T06:22:29.538Z,74.1
2019-03-01T06:27:28.166Z,74.1
2019-03-01T06:32:28.943Z,74.0
2019-03-01T06:37:28.497Z,74.0
2019-03-01T06:42:28.916Z,74.2
2019-03-01T06:47:28.460Z,74.3
2019-03-01T06:52:28.182Z,74.3
2019-03-01T06:57:28.156Z,74.3
2019-03-01T07:02:28.017Z,75.0
2019-03-01T07:07:29.052Z,75.0
2019-03-01T07:12:28.360Z,74.5
2019-03-01T07:17:29.284Z,73.9
2019-03-01T07:22:28.818Z,74.3
2019-03-01T07:27:28.335Z,74.0
2019-03-01T07:32:28.495Z,74.3
2019-03-01T07:37:29.088Z,74.0
2019-03-01T07:42:28.672Z,73.8
2019-03-01T07:47:29.458Z,73.4
2019-03-01T07:52:28.279Z,73.3
2019-03-01T07:57:28.119Z,73.3
2019-03-01T08:02:28.336Z,73.5
2019-03-01T08:07:28.845Z,73.3
2019-03-01T08:12:31.215Z,73.3
2019-03-01T08:17:32.530Z,73.1
2019-03-01T08:22:28.983Z,73.1
2019-03-01T08:27:29.336Z,73.0
2019-03-01T08:32:31.828Z,72.8
2019-03-01T08:37:28.543Z,72.7
2019-03-01T08:42:32.531Z,72.7
2019-03-01T08:47:28.347Z,72.7
2019-03-01T08:52:28.609Z,72.5
2019-03-01T08:57:28.200Z,72.6
2019-03-01T09:02:28.452Z,72.8
2019-03-01T09:07:31.299Z,73.0
2019-03-01T09:12:29.547Z,73.2
2019-03-01T09:17:29.495Z,73.3
2019-03-01T09:22:29.246Z,73.3
2019-03-01T09:27:31.366Z,73.4
2019-03-01T09:32:34.774Z,73.4
2019-03-01T09:37:33.243Z,73.5
2019-03-01T09:42:28.570Z,72.7
2019-03-01T09:47:28.120Z,72.2
2019-03-01T09:52:28.597Z,72.1
2019-03-01T09:57:28.758Z,72.2
2019-03-01T10:02:27.745Z,72.1
2019-03-01T10:07:29.199Z,74.0
2019-03-01T10:12:28.584Z,74.0
2019-03-01T10:17:29.427Z,73.3
2019-03-01T10:22:29.178Z,73.0
2019-03-01T10:27:28.327Z,73.0
2019-03-01T10:32:28.910Z,72.8
2019-03-01T10:37:28.303Z,72.7
2019-03-01T10:42:29.672Z,72.6
2019-03-01T10:47:28.881Z,72.4
2019-03-01T10:52:27.855Z,72.8
2019-03-01T10:57:28.769Z,72.8
2019-03-01T11:02:28.706Z,73.0
2019-03-01T11:07:29.200Z,73.1
2019-03-01T11:12:28.670Z,73.2
2019-03-01T11:17:29.601Z,73.4
2019-03-01T11:22:28.298Z,73.4
2019-03-01T11:27:28.633Z,73.5
2019-03-01T11:32:28.612Z,73.3
2019-03-01T11:37:28.877Z,73.3
2019-03-01T11:42:29.080Z,72.6
2019-03-01T11:47:28.731Z,72.8
2019-03-01T11:52:27.857Z,73.1
2019-03-01T11:57:28.181Z,73.1
2019-03-01T12:02:28.520Z,73.5
2019-03-01T12:07:28.946Z,73.6
2019-03-01T12:12:28.728Z,73.6
2019-03-01T12:17:29.207Z,73.8
2019-03-01T12:22:28.350Z,73.8
2019-03-01T12:27:29.066Z,73.7
2019-03-01T12:32:28.657Z,73.4
2019-03-01T12:37:28.788Z,73.3
2019-03-01T12:42:29.364Z,73.4
2019-03-01T12:47:29.552Z,73.4
2019-03-01T12:52:29.689Z,73.5
2019-03-01T12:57:28.553Z,73.8
2019-03-01T13:02:30.926Z,73.9
2019-03-01T13:07:28.218Z,74.2
2019-03-01T13:12:30.256Z,74.4
2019-03-01T13:17:29.250Z,74.8
2019-03-01T13:22:29.029Z,75.7
2019-03-01T13:27:29.314Z,75.3
2019-03-01T13:32:28.423Z,75.9
2019-03-01T13:37:28.641Z,75.8
2019-03-01T13:42:28.305Z,77.7
2019-03-01T13:47:29.617Z,77.8
2019-03-01T13:52:31.436Z,78.1
2019-03-01T13:57:30.346Z,78.4
2019-03-01T14:02:28.761Z,78.6
2019-03-01T14:07:28.371Z,78.6
2019-03-01T14:12:28.963Z,78.6
2019-03-01T14:17:29.207Z,78.0
2019-03-01T14:22:28.683Z,77.1
2019-03-01T14:27:30.625Z,76.0
2019-03-01T14:32:28.199Z,75.2
2019-03-01T14:37:28.540Z,74.7
2019-03-01T14:42:28.510Z,74.4
2019-03-01T14:47:33.639Z,74.0
2019-03-01T14:52:29.694Z,70.6
2019-03-01T14:57:28.896Z,69.1
2019-03-01T15:02:29.194Z,67.9
2019-03-01T15:07:31.914Z,68.5
2019-03-01T15:12:28.243Z,66.9
2019-03-01T15:17:28.951Z,62.7
2019-03-01T15:22:28.259Z,60.4
2019-03-01T15:27:28.686Z,59.9
2019-03-01T15:32:35.118Z,63.8
2019-03-01T15:37:31.000Z,69.8
2019-03-01T15:42:29.105Z,72.9
2019-03-01T15:47:28.604Z,73.9
2019-03-01T15:52:29.599Z,74.5
2019-03-01T15:57:28.555Z,75.1
2019-03-01T16:02:29.710Z,75.2
2019-03-01T16:07:33.448Z,74.8
2019-03-01T16:12:35.180Z,75.2
2019-03-01T16:17:28.771Z,75.4
2019-03-01T16:22:27.783Z,75.4
2019-03-01T16:27:28.436Z,75.4
2019-03-01T16:32:28.435Z,76.7
2019-03-01T16:37:28.969Z,76.7
2019-03-01T16:42:41.061Z,76.4
2019-03-01T16:47:28.731Z,76.2
2019-03-01T16:52:31.192Z,75.9
2019-03-01T16:57:29.207Z,75.9
2019-03-01T17:02:28.754Z,75.8
2019-03-01T17:07:29.095Z,75.9
2019-03-01T17:12:28.228Z,75.9
2019-03-01T17:17:28.913Z,75.9
2019-03-01T17:22:28.876Z,75.8
2019-03-01T17:27:28.245Z,75.7
2019-03-01T17:32:27.659Z,75.8
2019-03-01T17:37:32.319Z,75.9
2019-03-01T17:42:28.011Z,75.9
2019-03-01T17:47:28.028Z,76.0
2019-03-01T17:52:33.646Z,75.9
2019-03-01T17:57:32.929Z,75.9
2019-03-01T18:02:28.161Z,76.1
2019-03-01T18:07:28.949Z,76.2
2019-03-01T18:12:28.667Z,76.2
2019-03-01T18:17:28.187Z,75.9
2019-03-01T18:22:28.648Z,75.9
2019-03-01T18:27:28.261Z,75.8
2019-03-01T18:32:30.176Z,75.8
2019-03-01T18:37:29.026Z,76.0
2019-03-01T18:42:28.512Z,75.9
2019-03-01T18:47:31.500Z,75.9
2019-03-01T18:52:27.742Z,76.0
2019-03-01T18:57:28.158Z,75.9
2019-03-01T19:02:29.353Z,75.9
2019-03-01T19:07:29.095Z,75.8
2019-03-01T19:12:28.001Z,75.9
2019-03-01T19:17:28.487Z,75.6
2019-03-01T19:22:29.760Z,75.6
2019-03-01T19:27:28.446Z,75.6
2019-03-01T19:32:28.197Z,75.8
2019-03-01T19:37:28.235Z,75.6
2019-03-01T19:42:34.131Z,75.7
2019-03-01T19:47:30.086Z,75.7
2019-03-01T19:52:28.611Z,75.6
2019-03-01T19:57:28.807Z,75.4
2019-03-01T20:02:31.794Z,75.4
2019-03-01T20:07:28.744Z,75.5
2019-03-01T20:12:28.236Z,75.5
2019-03-01T20:17:33.380Z,75.6
2019-03-01T20:22:28.294Z,75.6
2019-03-01T20:27:28.264Z,75.6
2019-03-01T20:32:29.798Z,75.6
2019-03-01T20:37:29.616Z,75.9
2019-03-01T20:42:28.549Z,76.5
2019-03-01T20:47:28.537Z,76.9
2019-03-01T20:52:28.502Z,76.2
2019-03-01T20:57:28.693Z,76.2
2019-03-01T21:02:27.954Z,76.1
2019-03-01T21:07:28.089Z,75.9
2019-03-01T21:12:28.521Z,75.9
2019-03-01T21:17:28.531Z,75.9
2019-03-01T21:22:27.961Z,75.7
2019-03-01T21:27:27.668Z,75.7
2019-03-01T21:32:29.291Z,75.8
2019-03-01T21:37:28.772Z,75.6
2019-03-01T21:42:29.196Z,75.7
2019-03-01T21:47:29.199Z,75.7
2019-03-01T21:52:30.411Z,75.6
2019-03-01T21:57:32.292Z,75.6
2019-03-01T22:02:28.309Z,75.7
2019-03-01T22:07:28.251Z,75.8
2019-03-01T22:12:28.514Z,75.8
2019-03-01T22:17:28.549Z,75.8
2019-03-01T22:22:27.239Z,75.8
2019-03-01T22:27:27.891Z,75.7
2019-03-01T22:32:28.502Z,75.8
2019-03-01T22:37:29.843Z,75.9
2019-03-01T22:42:28.082Z,75.9
2019-03-01T22:47:28.127Z,75.8
2019-03-01T22:52:31.416Z,75.8
2019-03-01T22:57:28.221Z,75.8
2019-03-01T23:02:28.633Z,75.8
2019-03-01T23:07:29.203Z,75.8
2019-03-01T23:12:28.334Z,75.8
2019-03-01T23:22:49.863Z,75.7
2019-03-01T23:27:51.208Z,75.9
2019-03-01T23:32:52.269Z,75.7
2019-03-01T23:37:48.670Z,75.8
2019-03-01T23:42:47.905Z,75.8
2019-03-01T23:47:48.392Z,75.7
2019-03-01T23:52:48.485Z,75.9
2019-03-01T23:57:49.176Z,75.6
